createdAt,value
2016-08-24T00:03:05.441Z,"  -77"
2016-08-24T00:08:03.098Z,"  -77"
2016-08-24T00:13:00.857Z,"  -77"
2016-08-24T00:17:58.733Z,"  -78"
2016-08-24T00:22:56.623Z,"  -77"
2016-08-24T00:27:54.371Z,"  -77"
2016-08-24T00:32:52.140Z,"  -77"
2016-08-24T00:37:49.958Z,"  -77"
2016-08-24T00:42:47.706Z,"  -77"
2016-08-24T00:47:45.411Z,"  -77"
2016-08-24T00:52:43.153Z,"  -78"
2016-08-24T00:57:41.061Z,"  -76"
2016-08-24T01:02:38.796Z,"  -77"
2016-08-24T01:07:36.549Z,"  -77"
2016-08-24T01:12:34.379Z,"  -77"
2016-08-24T01:17:32.450Z,"  -76"
2016-08-24T01:22:30.300Z,"  -75"
2016-08-24T01:27:27.972Z,"  -76"
2016-08-24T01:32:25.647Z,"  -75"
2016-08-24T01:37:23.571Z,"  -75"
2016-08-24T01:42:21.548Z,"  -75"
2016-08-24T01:47:19.362Z,"  -76"
2016-08-24T01:52:17.255Z,"  -76"
2016-08-24T01:57:15.114Z,"  -75"
2016-08-24T02:02:12.982Z,"  -75"
2016-08-24T02:07:10.856Z,"  -75"
2016-08-24T02:12:08.614Z,"  -75"
2016-08-24T02:17:06.252Z,"  -75"
2016-08-24T02:22:04.031Z,"  -75"
2016-08-24T02:27:01.816Z,"  -75"
2016-08-24T02:31:59.552Z,"  -74"
2016-08-24T02:36:57.288Z,"  -75"
2016-08-24T02:41:55.085Z,"  -75"
2016-08-24T02:46:53.071Z,"  -75"
2016-08-24T02:51:50.852Z,"  -76"
2016-08-24T02:56:48.557Z,"  -76"
2016-08-24T03:01:46.437Z,"  -76"
2016-08-24T03:06:44.261Z,"  -76"
2016-08-24T03:11:42.112Z,"  -76"
2016-08-24T03:16:39.847Z,"  -77"
2016-08-24T03:21:37.722Z,"  -76"
2016-08-24T03:26:35.638Z,"  -76"
2016-08-24T03:31:33.538Z,"  -76"
2016-08-24T03:36:31.402Z,"  -75"
2016-08-24T03:41:29.323Z,"  -74"
2016-08-24T03:46:27.167Z,"  -75"
2016-08-24T03:51:25.083Z,"  -76"
2016-08-24T03:56:23.046Z,"  -76"
2016-08-24T04:01:20.751Z,"  -76"
2016-08-24T04:06:18.543Z,"  -77"
2016-08-24T04:11:16.545Z,"  -77"
2016-08-24T04:16:14.152Z,"  -78"
2016-08-24T04:21:12.051Z,"  -78"
2016-08-24T04:26:09.902Z,"  -77"
2016-08-24T04:31:07.806Z,"  -76"
2016-08-24T04:36:05.717Z,"  -77"
2016-08-24T04:41:03.617Z,"  -78"
2016-08-24T04:46:01.484Z,"  -78"
2016-08-24T04:50:59.360Z,"  -78"
2016-08-24T04:55:57.228Z,"  -79"
2016-08-24T05:00:55.253Z,"  -78"
2016-08-24T05:05:53.313Z,"  -78"
2016-08-24T05:10:51.158Z,"  -78"
2016-08-24T05:15:49.024Z,"  -79"
2016-08-24T05:20:47.053Z,"  -80"
2016-08-24T05:25:44.893Z,"  -78"
2016-08-24T05:30:42.871Z,"  -77"
2016-08-24T05:35:40.690Z,"  -78"
2016-08-24T05:40:38.758Z,"  -79"
2016-08-24T05:45:36.670Z,"  -79"
2016-08-24T05:50:34.498Z,"  -78"
2016-08-24T05:55:32.460Z,"  -77"
2016-08-24T06:00:30.387Z,"  -79"
2016-08-24T06:05:28.345Z,"  -80"
2016-08-24T06:10:26.533Z,"  -79"
2016-08-24T06:15:24.362Z,"  -79"
2016-08-24T06:20:22.209Z,"  -79"
2016-08-24T06:25:21.165Z,"  -79"
2016-08-24T06:30:18.781Z,"  -78"
2016-08-24T06:35:16.639Z,"  -80"
2016-08-24T06:40:14.564Z,"  -78"
2016-08-24T06:45:12.511Z,"  -78"
2016-08-24T06:50:10.347Z,"  -78"
2016-08-24T06:55:08.128Z,"  -78"
2016-08-24T07:00:05.838Z,"  -78"
2016-08-24T07:05:03.738Z,"  -78"
2016-08-24T07:10:01.569Z,"  -77"
2016-08-24T07:14:59.351Z,"  -75"
2016-08-24T07:19:57.127Z,"  -76"
2016-08-24T07:24:54.986Z,"  -75"
2016-08-24T07:29:53.221Z,"  -78"
2016-08-24T07:34:50.927Z,"  -79"
2016-08-24T07:39:48.742Z,"  -80"
2016-08-24T07:44:46.793Z,"  -74"
2016-08-24T07:49:44.512Z,"  -74"
2016-08-24T07:54:42.505Z,"  -78"
2016-08-24T07:59:40.568Z,"  -81"
2016-08-24T08:04:38.954Z,"  -70"
2016-08-24T08:09:36.956Z,"  -81"
2016-08-24T08:14:35.089Z,"  -73"
2016-08-24T08:19:33.193Z,"  -83"
2016-08-24T08:24:31.555Z,"  -85"
2016-08-24T08:29:29.529Z,"  -84"
2016-08-24T08:34:27.525Z,"  -80"
2016-08-24T08:39:25.460Z,"  -82"
2016-08-24T08:44:23.393Z,"  -80"
2016-08-24T08:49:21.265Z,"  -80"
2016-08-24T08:54:19.211Z,"  -79"
2016-08-24T08:59:17.048Z,"  -78"
2016-08-24T09:04:14.948Z,"  -79"
2016-08-24T09:09:12.657Z,"  -80"
2016-08-24T09:14:10.362Z,"  -80"
2016-08-24T09:19:08.232Z,"  -79"
2016-08-24T09:24:05.869Z,"  -86"
2016-08-24T09:29:03.603Z,"  -85"
2016-08-24T09:34:01.334Z,"  -83"
2016-08-24T09:38:59.006Z,"  -80"
2016-08-24T09:43:56.774Z,"  -84"
2016-08-24T09:48:54.490Z,"  -82"
2016-08-24T09:53:52.265Z,"  -83"
2016-08-24T09:58:50.175Z,"  -83"
2016-08-24T10:03:48.009Z,"  -84"
2016-08-24T10:08:45.801Z,"  -77"
2016-08-24T10:13:43.589Z,"  -76"
2016-08-24T10:18:41.574Z,"  -75"
2016-08-24T10:23:39.460Z,"  -79"
2016-08-24T10:28:37.444Z,"  -78"
2016-08-24T10:33:35.358Z,"  -75"
2016-08-24T10:38:33.256Z,"  -76"
2016-08-24T10:43:31.165Z,"  -76"
2016-08-24T10:48:29.132Z,"  -74"
2016-08-24T10:53:26.920Z,"  -75"
2016-08-24T10:58:24.915Z,"  -76"
2016-08-24T11:03:22.909Z,"  -74"
2016-08-24T11:08:20.725Z,"  -77"
2016-08-24T11:13:18.574Z,"  -75"
2016-08-24T11:18:16.404Z,"  -78"
2016-08-24T11:23:14.511Z,"  -76"
2016-08-24T11:28:12.340Z,"  -77"
2016-08-24T11:33:10.640Z,"  -77"
2016-08-24T11:38:08.470Z,"  -79"
2016-08-24T11:43:06.322Z,"  -77"
2016-08-24T11:48:04.277Z,"  -78"
2016-08-24T11:53:02.072Z,"  -84"
2016-08-24T11:57:59.831Z,"  -82"
2016-08-24T12:02:57.793Z,"  -75"
2016-08-24T12:07:55.771Z,"  -83"
2016-08-24T12:12:53.533Z,"  -82"
2016-08-24T12:17:51.462Z,"  -83"
2016-08-24T12:22:49.286Z,"  -83"
2016-08-24T12:27:47.071Z,"  -82"
2016-08-24T12:32:44.989Z,"  -75"
2016-08-24T12:52:26.015Z,"  -58"
2016-08-24T12:57:16.534Z,"  -56"
2016-08-24T13:02:12.920Z,"  -62"
2016-08-24T13:07:09.584Z,"  -65"
2016-08-24T13:12:06.255Z,"  -63"
2016-08-24T13:17:03.759Z,"  -65"
2016-08-24T13:22:00.217Z,"  -70"
2016-08-24T13:26:56.208Z,"  -73"
2016-08-24T13:31:52.191Z,"  -71"
2016-08-24T13:36:48.333Z,"  -72"
2016-08-24T13:41:44.666Z,"  -73"
2016-08-24T13:46:41.538Z,"  -73"
2016-08-24T13:51:38.730Z,"  -73"
2016-08-24T13:56:35.285Z,"  -73"
2016-08-24T14:01:34.549Z,"  -73"
2016-08-24T14:06:30.521Z,"  -73"
2016-08-24T14:11:27.190Z,"  -73"
2016-08-24T14:16:23.915Z,"  -73"
2016-08-24T14:21:20.406Z,"  -74"
2016-08-24T14:26:17.343Z,"  -73"
2016-08-24T14:31:14.219Z,"  -73"
2016-08-24T14:36:10.908Z,"  -78"
2016-08-24T14:41:07.446Z,"  -70"
2016-08-24T14:46:04.112Z,"  -79"
2016-08-24T14:51:01.340Z,"  -66"
2016-08-24T14:55:58.090Z,"  -69"
2016-08-24T15:00:54.843Z,"  -71"
2016-08-24T15:05:51.559Z,"  -72"
2016-08-24T15:10:48.113Z,"  -70"
2016-08-24T15:15:47.349Z,"  -71"
2016-08-24T15:20:43.499Z,"  -71"
2016-08-24T15:25:40.444Z,"  -70"
2016-08-24T15:30:37.257Z,"  -71"
2016-08-24T15:35:33.654Z,"  -73"
2016-08-24T15:40:30.491Z,"  -71"
2016-08-24T15:45:27.113Z,"  -71"
2016-08-24T15:50:24.360Z,"  -70"
2016-08-24T15:55:21.086Z,"  -70"
2016-08-24T16:00:19.260Z,"  -71"
2016-08-24T16:05:15.603Z,"  -71"
2016-08-24T16:10:12.193Z,"  -72"
2016-08-24T16:15:08.815Z,"  -72"
2016-08-24T16:20:05.697Z,"  -71"
2016-08-24T16:25:02.401Z,"  -71"
2016-08-24T16:29:58.907Z,"  -71"
2016-08-24T16:34:55.672Z,"  -71"
2016-08-24T16:39:52.874Z,"  -71"
2016-08-24T16:44:49.462Z,"  -72"
2016-08-24T16:49:46.101Z,"  -71"
2016-08-24T16:54:42.617Z,"  -71"
2016-08-24T16:59:39.645Z,"  -71"
2016-08-24T17:04:36.669Z,"  -71"
2016-08-24T17:09:33.309Z,"  -71"
2016-08-24T17:14:29.926Z,"  -71"
2016-08-24T17:19:26.562Z,"  -71"
2016-08-24T17:24:23.130Z,"  -71"
2016-08-24T17:29:20.152Z,"  -72"
2016-08-24T17:34:17.210Z,"  -72"
2016-08-24T17:39:13.884Z,"  -71"
2016-08-24T17:44:10.479Z,"  -72"
2016-08-24T17:49:07.815Z,"  -71"
2016-08-24T17:54:04.463Z,"  -71"
2016-08-24T17:59:01.091Z,"  -71"
2016-08-24T18:03:57.659Z,"  -71"
2016-08-24T18:08:54.995Z,"  -72"
2016-08-24T18:13:51.584Z,"  -71"
2016-08-24T18:18:48.290Z,"  -72"
2016-08-24T18:23:44.957Z,"  -72"
2016-08-24T18:28:41.635Z,"  -72"
2016-08-24T18:33:38.258Z,"  -71"
2016-08-24T18:38:37.544Z,"  -71"
2016-08-24T18:43:33.671Z,"  -71"
2016-08-24T18:48:30.433Z,"  -72"
2016-08-24T18:53:27.089Z,"  -70"
2016-08-24T18:58:23.702Z,"  -71"
2016-08-24T19:03:20.651Z,"  -72"
2016-08-24T19:08:17.255Z,"  -71"
2016-08-24T19:13:14.365Z,"  -70"
2016-08-24T19:18:11.360Z,"  -71"
2016-08-24T19:23:08.231Z,"  -78"
2016-08-24T19:28:04.940Z,"  -79"
2016-08-24T19:33:01.497Z,"  -77"
2016-08-24T19:37:58.232Z,"  -77"
2016-08-24T19:42:54.785Z,"  -78"
2016-08-24T19:47:51.442Z,"  -77"
2016-08-24T19:52:48.081Z,"  -77"
2016-08-24T19:57:44.824Z,"  -75"
2016-08-24T20:02:43.882Z,"  -70"
2016-08-24T20:07:39.930Z,"  -75"
2016-08-24T20:12:36.640Z,"  -75"
2016-08-24T20:17:33.256Z,"  -76"
2016-08-24T20:22:30.401Z,"  -74"
2016-08-24T20:27:26.951Z,"  -74"
2016-08-24T20:32:23.738Z,"  -76"
2016-08-24T20:37:20.755Z,"  -76"
2016-08-24T20:42:17.581Z,"  -75"
2016-08-24T20:47:15.714Z,"  -76"
2016-08-24T20:52:12.182Z,"  -75"
2016-08-24T20:57:09.838Z,"  -76"
2016-08-24T21:02:06.260Z,"  -76"
2016-08-24T21:07:03.020Z,"  -75"
2016-08-24T21:11:59.538Z,"  -76"
2016-08-24T21:16:56.310Z,"  -72"
2016-08-24T21:21:53.242Z,"  -76"
2016-08-24T21:26:49.900Z,"  -75"
2016-08-24T21:31:47.001Z,"  -74"
2016-08-24T21:36:44.148Z,"  -75"
2016-08-24T21:41:40.684Z,"  -75"
2016-08-24T21:46:37.335Z,"  -75"
2016-08-24T21:51:34.278Z,"  -74"
2016-08-24T21:56:30.862Z,"  -74"
2016-08-24T22:01:27.335Z,"  -73"
2016-08-24T22:06:24.392Z,"  -74"
2016-08-24T22:11:22.375Z,"  -74"
2016-08-24T22:16:18.447Z,"  -76"
2016-08-24T22:21:15.144Z,"  -75"
2016-08-24T22:26:13.222Z,"  -75"
2016-08-24T22:31:09.576Z,"  -75"
2016-08-24T22:36:06.193Z,"  -75"
2016-08-24T22:41:02.831Z,"  -75"
2016-08-24T22:45:59.534Z,"  -75"
2016-08-24T22:50:56.276Z,"  -75"
2016-08-24T22:55:52.808Z,"  -75"
2016-08-24T23:00:49.966Z,"  -75"
2016-08-24T23:05:46.715Z,"  -75"
2016-08-24T23:10:43.704Z,"  -75"
2016-08-24T23:15:40.324Z,"  -74"
2016-08-24T23:20:37.186Z,"  -75"
2016-08-24T23:25:34.235Z,"  -75"
2016-08-24T23:30:30.775Z,"  -74"
2016-08-24T23:35:27.367Z,"  -75"
2016-08-24T23:40:24.096Z,"  -74"
2016-08-24T23:45:21.047Z,"  -74"
2016-08-24T23:50:17.714Z,"  -75"
2016-08-24T23:55:14.285Z,"  -74"
